createdAt,value
2022-10-18T00:02:03.844Z,68.43
2022-10-18T00:04:30.304Z,68.44
2022-10-18T00:06:56.653Z,68.75
2022-10-18T00:09:23.058Z,68.55
2022-10-18T00:11:49.508Z,68.31
2022-10-18T00:14:15.926Z,68.33
2022-10-18T00:16:42.235Z,68.78
2022-10-18T00:19:08.557Z,69.11
2022-10-18T00:21:35.094Z,68.77
2022-10-18T00:24:01.550Z,70.93
2022-10-18T00:26:29.809Z,72.37
2022-10-18T00:28:59.269Z,71.40
2022-10-18T00:31:28.175Z,71.00
2022-10-18T00:33:56.965Z,70.94
2022-10-18T00:36:24.538Z,70.27
2022-10-18T00:38:51.211Z,70.32
2022-10-18T00:41:23.645Z,70.23
2022-10-18T00:44:00.441Z,70.16
2022-10-18T00:46:33.017Z,69.77
2022-10-18T00:49:02.409Z,69.62
2022-10-18T00:51:48.474Z,69.47
2022-10-18T00:54:17.052Z,70.01
2022-10-18T00:56:44.810Z,69.36
2022-10-18T00:59:13.778Z,69.32
2022-10-18T01:01:40.234Z,69.50
2022-10-18T01:04:06.823Z,69.33
2022-10-18T01:06:41.765Z,69.03
2022-10-18T01:09:32.554Z,68.97
2022-10-18T01:12:13.854Z,69.30
2022-10-18T01:14:49.924Z,69.24
2022-10-18T01:17:29.347Z,69.34
2022-10-18T01:20:09.863Z,69.37
2022-10-18T01:22:47.889Z,70.13
2022-10-18T01:25:32.520Z,70.25
2022-10-18T01:28:34.489Z,70.25
2022-10-18T01:31:05.629Z,70.63
2022-10-18T01:33:43.581Z,70.33
2022-10-18T01:36:19.139Z,70.31
2022-10-18T01:38:49.740Z,70.13
2022-10-18T01:41:19.173Z,70.42
2022-10-18T01:43:47.949Z,70.49
2022-10-18T01:46:18.753Z,70.14
2022-10-18T01:48:45.913Z,69.80
2022-10-18T01:51:12.245Z,69.83
2022-10-18T01:53:38.617Z,70.21
2022-10-18T01:56:23.333Z,69.88
2022-10-18T01:59:11.043Z,70.06
2022-10-18T02:01:42.286Z,70.20
2022-10-18T02:04:32.573Z,70.15
2022-10-18T02:07:08.197Z,70.61
2022-10-18T02:09:46.145Z,70.02
2022-10-18T02:12:14.787Z,70.83
2022-10-18T02:14:43.413Z,70.36
2022-10-18T02:17:12.428Z,69.96
2022-10-18T02:19:43.847Z,69.69
2022-10-18T02:22:12.695Z,70.13
2022-10-18T02:24:44.140Z,70.32
2022-10-18T02:27:10.823Z,71.31
2022-10-18T02:29:38.749Z,71.51
2022-10-18T02:32:07.767Z,71.01
2022-10-18T02:34:40.486Z,70.98
2022-10-18T02:37:10.687Z,71.76
2022-10-18T02:39:48.631Z,72.20
2022-10-18T02:42:15.744Z,71.32
2022-10-18T02:44:42.195Z,71.48
2022-10-18T02:47:12.072Z,71.21
2022-10-18T02:49:38.417Z,70.72
2022-10-18T02:52:04.772Z,70.54
2022-10-18T02:54:31.214Z,70.88
2022-10-18T02:56:57.528Z,70.14
2022-10-18T02:59:23.881Z,70.07
2022-10-18T03:01:50.258Z,70.22
2022-10-18T03:04:16.689Z,70.40
2022-10-18T03:06:43.053Z,70.45
2022-10-18T03:09:09.688Z,70.11
2022-10-18T03:11:35.987Z,70.24
2022-10-18T03:14:02.320Z,70.09
2022-10-18T03:16:28.738Z,70.15
2022-10-18T03:18:55.042Z,70.58
2022-10-18T03:21:21.554Z,70.67
2022-10-18T03:23:47.867Z,70.64
2022-10-18T03:26:14.265Z,70.40
2022-10-18T03:28:40.893Z,70.40
2022-10-18T03:31:07.259Z,70.60
2022-10-18T03:33:33.853Z,70.47
2022-10-18T03:36:02.483Z,70.43
2022-10-18T03:38:29.026Z,70.30
2022-10-18T03:40:55.412Z,69.90
2022-10-18T03:43:22.667Z,69.85
2022-10-18T03:45:48.992Z,69.93
2022-10-18T03:48:15.383Z,70.09
2022-10-18T03:50:42.788Z,70.60
2022-10-18T03:53:09.324Z,70.35
2022-10-18T03:55:36.755Z,70.28
2022-10-18T03:58:03.339Z,70.34
2022-10-18T04:00:29.863Z,70.37
2022-10-18T04:02:56.279Z,70.31
2022-10-18T04:05:28.302Z,70.56
2022-10-18T04:07:54.881Z,70.41
2022-10-18T04:10:21.253Z,70.17
2022-10-18T04:12:47.764Z,69.90
2022-10-18T04:15:14.118Z,69.93
2022-10-18T04:17:40.466Z,69.47
2022-10-18T04:20:07.388Z,69.62
2022-10-18T04:22:33.699Z,69.83
2022-10-18T04:25:00.048Z,69.92
2022-10-18T04:27:26.418Z,70.50
2022-10-18T04:29:52.783Z,70.43
2022-10-18T04:32:19.089Z,71.03
2022-10-18T04:34:45.401Z,70.68
2022-10-18T04:37:11.750Z,70.70
2022-10-18T04:39:38.128Z,70.14
2022-10-18T04:42:04.864Z,70.19
2022-10-18T04:44:31.187Z,70.23
2022-10-18T04:46:57.499Z,70.43
2022-10-18T04:49:24.014Z,70.25
2022-10-18T04:51:50.523Z,70.61
2022-10-18T04:54:17.163Z,70.47
2022-10-18T04:56:43.475Z,70.05
2022-10-18T04:59:09.820Z,70.20
2022-10-18T05:01:36.370Z,70.22
2022-10-18T05:04:02.709Z,70.03
2022-10-18T05:06:29.179Z,70.66
2022-10-18T05:08:55.526Z,70.59
2022-10-18T05:11:21.931Z,70.07
2022-10-18T05:13:50.184Z,69.56
2022-10-18T05:16:17.364Z,69.19
2022-10-18T05:18:43.675Z,69.58
2022-10-18T05:21:10.161Z,69.54
2022-10-18T05:23:36.479Z,69.76
2022-10-18T05:26:04.878Z,69.81
2022-10-18T05:28:39.760Z,69.84
2022-10-18T05:31:10.489Z,69.89
2022-10-18T05:33:36.807Z,69.81
2022-10-18T05:36:04.225Z,70.11
2022-10-18T05:38:30.937Z,69.57
2022-10-18T05:40:58.723Z,70.03
2022-10-18T05:43:28.858Z,71.17
2022-10-18T05:45:55.623Z,70.90
2022-10-18T05:48:22.076Z,70.48
2022-10-18T05:50:48.429Z,70.01
2022-10-18T05:53:35.113Z,69.99
2022-10-18T05:56:02.344Z,70.22
2022-10-18T05:58:28.664Z,69.46
2022-10-18T06:00:57.862Z,70.08
2022-10-18T06:03:24.171Z,69.88
2022-10-18T06:05:50.494Z,69.48
2022-10-18T06:08:16.806Z,69.89
2022-10-18T06:10:43.127Z,69.52
2022-10-18T06:13:09.449Z,69.94
2022-10-18T06:15:35.747Z,69.87
2022-10-18T06:18:02.068Z,69.63
2022-10-18T06:20:28.377Z,70.26
2022-10-18T06:22:54.738Z,69.83
2022-10-18T06:25:21.049Z,69.46
2022-10-18T06:27:47.350Z,70.16
2022-10-18T06:30:13.805Z,70.45
2022-10-18T06:32:42.166Z,70.71
2022-10-18T06:35:09.095Z,70.28
2022-10-18T06:37:36.769Z,70.62
2022-10-18T06:40:03.347Z,70.55
2022-10-18T06:42:29.808Z,71.40
2022-10-18T06:44:56.265Z,71.47
2022-10-18T06:47:22.626Z,71.59
2022-10-18T06:49:48.970Z,71.26
2022-10-18T06:52:20.614Z,70.62
2022-10-18T06:54:47.131Z,70.32
2022-10-18T06:57:13.454Z,70.19
2022-10-18T06:59:39.770Z,70.10
2022-10-18T07:02:06.230Z,70.07
2022-10-18T07:04:32.743Z,69.86
2022-10-18T07:06:59.058Z,70.93
2022-10-18T07:09:25.368Z,70.11
2022-10-18T07:11:52.810Z,70.56
2022-10-18T07:14:19.320Z,70.04
2022-10-18T07:16:45.813Z,70.49
2022-10-18T07:19:12.157Z,70.36
2022-10-18T07:21:38.545Z,71.00
2022-10-18T07:24:05.046Z,70.13
2022-10-18T07:26:33.205Z,69.79
2022-10-18T07:29:07.434Z,71.05
2022-10-18T07:31:34.356Z,70.56
2022-10-18T07:34:00.812Z,70.32
2022-10-18T07:36:27.184Z,69.72
2022-10-18T07:38:53.595Z,69.76
2022-10-18T07:41:20.334Z,69.58
2022-10-18T07:43:48.813Z,69.43
2022-10-18T07:46:16.172Z,69.30
2022-10-18T07:48:43.244Z,69.41
2022-10-18T07:51:09.964Z,70.23
2022-10-18T07:53:36.879Z,69.64
2022-10-18T07:56:11.402Z,69.24
2022-10-18T07:58:37.750Z,68.28
2022-10-18T08:01:06.672Z,67.88
2022-10-18T08:03:34.239Z,67.57
2022-10-18T08:06:01.341Z,67.27
2022-10-18T08:08:28.736Z,67.08
2022-10-18T08:10:55.166Z,66.60
2022-10-18T08:13:22.238Z,65.96
2022-10-18T08:15:48.591Z,65.96
2022-10-18T08:18:15.021Z,65.89
2022-10-18T08:20:45.483Z,65.58
2022-10-18T08:23:12.020Z,66.28
2022-10-18T08:25:38.528Z,67.00
2022-10-18T08:28:05.141Z,66.18
2022-10-18T08:30:31.479Z,66.12
2022-10-18T08:32:57.792Z,65.84
2022-10-18T08:35:24.154Z,66.95
2022-10-18T08:37:51.140Z,67.34
2022-10-18T08:40:17.463Z,66.99
2022-10-18T08:43:08.334Z,67.28
2022-10-18T08:45:42.953Z,67.93
2022-10-18T08:48:43.629Z,67.76
2022-10-18T08:51:26.211Z,67.58
2022-10-18T08:54:13.579Z,67.72
2022-10-18T08:56:45.339Z,66.97
2022-10-18T08:59:12.869Z,66.29
2022-10-18T09:01:54.182Z,65.59
2022-10-18T09:04:27.098Z,65.58
2022-10-18T09:07:15.263Z,65.09
2022-10-18T09:10:00.011Z,64.33
2022-10-18T09:12:51.264Z,63.63
2022-10-18T09:15:38.945Z,63.01
2022-10-18T09:18:20.342Z,62.85
2022-10-18T09:20:55.155Z,62.87
2022-10-18T09:23:31.207Z,62.35
2022-10-18T09:26:15.663Z,64.10
2022-10-18T09:29:03.850Z,63.99
2022-10-18T09:32:04.487Z,63.54
2022-10-18T09:34:50.522Z,63.26
2022-10-18T09:37:19.555Z,63.13
2022-10-18T09:39:48.110Z,62.83
2022-10-18T09:42:26.565Z,63.02
2022-10-18T09:45:00.693Z,62.81
2022-10-18T09:47:37.194Z,62.57
2022-10-18T09:50:19.253Z,62.20
2022-10-18T09:52:58.450Z,61.61
2022-10-18T09:55:33.892Z,62.06
2022-10-18T09:58:05.090Z,62.31
2022-10-18T10:00:35.131Z,63.48
2022-10-18T10:03:02.193Z,63.28
2022-10-18T10:05:28.512Z,62.65
2022-10-18T10:07:59.808Z,63.47
2022-10-18T10:10:28.605Z,63.62
2022-10-18T10:13:03.966Z,63.31
2022-10-18T10:15:35.266Z,62.95
2022-10-18T10:18:18.968Z,62.97
2022-10-18T10:20:48.429Z,62.19
2022-10-18T10:23:25.938Z,62.17
2022-10-18T10:25:59.261Z,62.24
2022-10-18T10:28:33.135Z,60.38
2022-10-18T10:31:24.336Z,61.38
2022-10-18T10:34:14.147Z,61.80
2022-10-18T10:36:51.662Z,60.84
2022-10-18T10:39:20.242Z,61.30
2022-10-18T10:41:49.736Z,61.27
2022-10-18T10:44:18.936Z,61.15
2022-10-18T10:46:48.162Z,60.57
2022-10-18T10:52:27.719Z,60.12
2022-10-18T10:55:05.786Z,59.29
2022-10-18T10:57:45.928Z,59.40
2022-10-18T11:00:37.395Z,58.90
2022-10-18T11:03:28.441Z,57.94
2022-10-18T11:05:57.543Z,57.77
2022-10-18T11:08:31.817Z,56.64
2022-10-18T11:11:17.009Z,57.20
2022-10-18T11:14:13.773Z,57.81
2022-10-18T11:16:56.269Z,55.37
2022-10-18T11:19:37.619Z,56.63
2022-10-18T11:22:09.379Z,56.84
2022-10-18T11:24:37.058Z,56.55
2022-10-18T11:27:10.363Z,55.89
2022-10-18T11:29:49.353Z,55.50
2022-10-18T11:32:47.135Z,54.71
2022-10-18T11:35:40.331Z,53.57
2022-10-18T11:38:29.259Z,52.99
2022-10-18T11:40:55.704Z,52.59
2022-10-18T11:44:01.215Z,52.95
2022-10-18T11:46:52.763Z,53.08
2022-10-18T11:49:32.206Z,53.26
2022-10-18T11:52:24.448Z,52.57
2022-10-18T11:55:09.701Z,52.13
2022-10-18T11:58:02.274Z,51.33
2022-10-18T12:01:03.698Z,51.66
2022-10-18T12:03:44.902Z,51.97
2022-10-18T12:06:19.362Z,51.28
2022-10-18T12:08:50.509Z,50.79
2022-10-18T12:11:46.920Z,50.77
2022-10-18T12:14:30.347Z,50.58
2022-10-18T12:17:35.677Z,50.84
2022-10-18T12:19:51.757Z,50.94
2022-10-18T12:22:40.299Z,50.44
2022-10-18T12:25:13.634Z,50.42
2022-10-18T12:28:02.382Z,49.53
2022-10-18T12:30:47.074Z,49.54
2022-10-18T12:33:28.238Z,49.85
2022-10-18T12:36:41.508Z,48.29
2022-10-18T12:39:21.567Z,49.06
2022-10-18T12:41:57.010Z,48.87
2022-10-18T12:44:31.717Z,48.76
2022-10-18T12:47:00.902Z,48.33
2022-10-18T12:49:31.585Z,49.24
2022-10-18T12:52:01.586Z,49.12
2022-10-18T12:55:25.886Z,47.77
2022-10-18T12:57:52.339Z,48.35
2022-10-18T13:00:30.897Z,47.15
2022-10-18T13:03:09.834Z,47.82
2022-10-18T13:05:53.505Z,47.04
2022-10-18T13:08:27.115Z,46.05
2022-10-18T13:11:09.045Z,44.99
2022-10-18T13:14:06.037Z,46.05
2022-10-18T13:16:38.453Z,44.59
2022-10-18T13:19:21.573Z,44.24
2022-10-18T13:22:06.660Z,43.49
2022-10-18T13:24:38.989Z,43.03
2022-10-18T13:27:42.165Z,41.86
2022-10-18T13:30:11.572Z,42.30
2022-10-18T13:33:02.489Z,41.97
2022-10-18T13:35:52.573Z,41.04
2022-10-18T13:38:42.493Z,41.43
2022-10-18T13:41:13.297Z,40.86
2022-10-18T13:44:11.355Z,40.59
2022-10-18T13:47:01.788Z,40.60
2022-10-18T13:49:40.524Z,40.05
2022-10-18T13:52:25.727Z,39.51
2022-10-18T13:55:20.375Z,39.11
2022-10-18T13:58:49.057Z,39.66
2022-10-18T14:02:36.315Z,41.69
2022-10-18T14:05:38.343Z,42.25
2022-10-18T14:08:13.673Z,43.10
2022-10-18T14:11:01.902Z,42.14
2022-10-18T14:13:42.556Z,43.61
2022-10-18T14:16:29.494Z,44.48
2022-10-18T14:19:14.576Z,43.97
2022-10-18T14:21:48.555Z,43.36
2022-10-18T14:24:21.189Z,43.95
2022-10-18T14:26:47.672Z,44.31
2022-10-18T14:29:19.752Z,45.15
2022-10-18T14:31:54.150Z,46.13
2022-10-18T14:34:21.685Z,46.02
2022-10-18T14:36:49.452Z,45.59
2022-10-18T14:39:22.450Z,44.86
2022-10-18T14:41:51.448Z,45.19
2022-10-18T14:44:21.882Z,44.55
2022-10-18T14:47:22.714Z,45.25
2022-10-18T14:49:50.227Z,46.01
2022-10-18T14:52:21.957Z,45.64
2022-10-18T14:54:54.223Z,46.90
2022-10-18T14:57:35.371Z,46.80
2022-10-18T15:00:07.363Z,46.81
2022-10-18T15:02:37.223Z,46.93
2022-10-18T15:05:17.059Z,46.37
2022-10-18T15:07:44.114Z,47.15
2022-10-18T15:10:17.810Z,47.27
2022-10-18T15:13:08.220Z,46.31
2022-10-18T15:15:34.678Z,45.78
2022-10-18T15:18:01.862Z,45.27
2022-10-18T15:20:31.779Z,45.45
2022-10-18T15:23:33.076Z,46.20
2022-10-18T15:26:04.284Z,46.39
2022-10-18T15:28:39.314Z,47.07
2022-10-18T15:31:06.663Z,47.08
2022-10-18T15:33:34.762Z,46.23
2022-10-18T15:36:12.490Z,46.58
2022-10-18T15:38:39.071Z,46.29
2022-10-18T15:41:41.035Z,46.70
2022-10-18T15:44:19.165Z,47.66
2022-10-18T15:46:47.554Z,47.45
2022-10-18T15:49:44.715Z,47.19
2022-10-18T15:52:33.851Z,47.26
2022-10-18T15:55:27.768Z,47.03
2022-10-18T15:58:02.095Z,47.05
2022-10-18T16:00:28.404Z,47.12
2022-10-18T16:02:54.747Z,47.24
2022-10-18T16:05:21.168Z,47.52
2022-10-18T16:07:53.463Z,47.20
2022-10-18T16:10:20.155Z,47.27
2022-10-18T16:12:46.745Z,46.52
2022-10-18T16:15:13.153Z,46.61
2022-10-18T16:17:39.446Z,47.19
2022-10-18T16:20:06.428Z,47.07
2022-10-18T16:22:34.810Z,47.34
2022-10-18T16:25:03.764Z,48.34
2022-10-18T16:27:30.085Z,47.98
2022-10-18T16:29:56.562Z,48.58
2022-10-18T16:32:22.864Z,48.41
2022-10-18T16:34:49.170Z,48.91
2022-10-18T16:37:15.612Z,48.93
2022-10-18T16:39:41.971Z,49.18
2022-10-18T16:42:08.782Z,49.53
2022-10-18T16:44:35.297Z,49.61
2022-10-18T16:47:01.772Z,49.97
2022-10-18T16:49:28.374Z,50.09
2022-10-18T16:51:55.395Z,50.16
2022-10-18T16:54:23.371Z,50.60
2022-10-18T16:56:50.429Z,50.30
2022-10-18T16:59:29.078Z,50.43
2022-10-18T17:01:55.564Z,50.42
2022-10-18T17:04:22.097Z,50.48
2022-10-18T17:06:49.042Z,50.77
2022-10-18T17:09:15.978Z,50.85
2022-10-18T17:11:42.418Z,51.44
2022-10-18T17:14:08.824Z,51.15
2022-10-18T17:16:36.709Z,51.26
2022-10-18T17:19:07.094Z,51.09
2022-10-18T17:21:33.578Z,51.72
2022-10-18T17:24:03.077Z,51.56
2022-10-18T17:26:30.613Z,52.21
2022-10-18T17:29:00.198Z,52.43
2022-10-18T17:31:27.958Z,53.29
2022-10-18T17:33:55.175Z,52.87
2022-10-18T17:36:22.102Z,53.11
2022-10-18T17:38:53.093Z,53.19
2022-10-18T17:41:19.990Z,53.23
2022-10-18T17:43:47.863Z,53.68
2022-10-18T17:46:14.601Z,54.06
2022-10-18T17:48:41.960Z,53.96
2022-10-18T17:51:10.053Z,54.67
2022-10-18T17:53:36.536Z,54.62
2022-10-18T17:56:04.358Z,54.54
2022-10-18T17:58:31.867Z,54.73
2022-10-18T18:01:07.575Z,54.90
2022-10-18T18:03:34.045Z,54.50
2022-10-18T18:06:00.595Z,54.74
2022-10-18T18:08:27.143Z,54.67
2022-10-18T18:10:55.349Z,54.90
2022-10-18T18:13:21.678Z,55.57
2022-10-18T18:15:47.990Z,55.67
2022-10-18T18:18:14.326Z,55.66
2022-10-18T18:20:40.713Z,55.84
2022-10-18T18:23:07.043Z,56.59
2022-10-18T18:25:33.357Z,55.97
2022-10-18T18:28:03.838Z,56.51
2022-10-18T18:30:33.898Z,56.59
2022-10-18T18:33:00.299Z,57.11
2022-10-18T18:35:26.637Z,56.79
2022-10-18T18:37:53.096Z,56.55
2022-10-18T18:40:19.551Z,56.94
2022-10-18T18:42:56.788Z,56.93
2022-10-18T18:45:32.467Z,57.48
2022-10-18T18:47:58.815Z,57.90
2022-10-18T18:50:25.184Z,58.16
2022-10-18T18:52:51.555Z,58.16
2022-10-18T18:55:17.882Z,58.41
2022-10-18T18:57:44.200Z,58.39
2022-10-18T19:00:12.525Z,58.04
2022-10-18T19:02:38.925Z,58.66
2022-10-18T19:05:05.529Z,58.61
2022-10-18T19:07:32.254Z,58.45
2022-10-18T19:09:58.886Z,58.71
2022-10-18T19:12:25.260Z,59.56
2022-10-18T19:14:51.612Z,59.59
2022-10-18T19:17:17.934Z,59.73
2022-10-18T19:19:44.420Z,59.31
2022-10-18T19:22:11.028Z,59.55
2022-10-18T19:24:37.453Z,59.07
2022-10-18T19:27:09.586Z,59.54
2022-10-18T19:29:37.530Z,59.99
2022-10-18T19:32:06.992Z,59.87
2022-10-18T19:34:37.095Z,60.24
2022-10-18T19:37:04.271Z,60.18
2022-10-18T19:39:35.377Z,61.07
2022-10-18T19:42:07.176Z,60.73
2022-10-18T19:44:36.088Z,60.85
2022-10-18T19:47:04.741Z,60.89
2022-10-18T19:49:31.276Z,61.04
2022-10-18T19:51:58.170Z,60.98
2022-10-18T19:54:24.867Z,61.18
2022-10-18T19:56:51.407Z,61.18
2022-10-18T19:59:17.942Z,61.03
2022-10-18T20:01:45.168Z,61.16
2022-10-18T20:04:13.318Z,61.32
2022-10-18T20:06:40.573Z,61.81
2022-10-18T20:09:08.582Z,61.86
2022-10-18T20:11:35.386Z,62.73
2022-10-18T20:14:01.944Z,62.42
2022-10-18T20:16:30.642Z,63.24
2022-10-18T20:19:06.556Z,62.96
2022-10-18T20:21:35.646Z,63.08
2022-10-18T20:24:05.728Z,62.98
2022-10-18T20:26:33.030Z,63.13
2022-10-18T20:28:59.940Z,63.34
2022-10-18T20:31:31.749Z,63.57
2022-10-18T20:34:00.901Z,63.72
2022-10-18T20:36:28.955Z,63.69
2022-10-18T20:38:55.965Z,63.68
2022-10-18T20:41:28.550Z,63.54
2022-10-18T20:44:03.479Z,63.49
2022-10-18T20:46:32.053Z,63.58
2022-10-18T20:48:58.376Z,64.05
2022-10-18T20:51:24.732Z,63.61
2022-10-18T20:53:51.491Z,63.61
2022-10-18T20:56:20.321Z,64.45
2022-10-18T20:58:48.666Z,64.28
2022-10-18T21:01:18.087Z,64.13
2022-10-18T21:03:46.394Z,63.99
2022-10-18T21:06:33.097Z,64.41
2022-10-18T21:09:01.992Z,63.99
2022-10-18T21:11:32.125Z,64.23
2022-10-18T21:14:02.456Z,63.73
2022-10-18T21:16:30.454Z,63.71
2022-10-18T21:19:11.596Z,63.88
2022-10-18T21:21:38.027Z,64.20
2022-10-18T21:24:07.147Z,64.20
2022-10-18T21:26:35.566Z,63.90
2022-10-18T21:29:07.939Z,64.18
2022-10-18T21:31:36.955Z,63.96
2022-10-18T21:34:12.678Z,64.08
2022-10-18T21:36:40.431Z,64.27
2022-10-18T21:39:10.416Z,64.82
2022-10-18T21:41:37.671Z,65.06
2022-10-18T21:44:08.242Z,64.87
2022-10-18T21:46:36.363Z,65.40
2022-10-18T21:49:03.064Z,64.86
2022-10-18T21:51:29.448Z,65.35
2022-10-18T21:53:57.565Z,65.28
2022-10-18T21:56:34.691Z,65.05
2022-10-18T21:59:02.458Z,64.82
2022-10-18T22:01:32.412Z,65.12
2022-10-18T22:04:00.863Z,65.79
2022-10-18T22:06:29.926Z,66.00
2022-10-18T22:09:00.350Z,65.87
2022-10-18T22:11:29.928Z,65.30
2022-10-18T22:13:57.127Z,65.25
2022-10-18T22:16:24.038Z,65.28
2022-10-18T22:18:51.098Z,64.99
2022-10-18T22:21:19.535Z,65.19
2022-10-18T22:23:49.054Z,65.24
2022-10-18T22:26:27.864Z,65.33
2022-10-18T22:29:00.014Z,65.77
2022-10-18T22:31:29.989Z,66.04
2022-10-18T22:34:05.059Z,66.20
2022-10-18T22:36:32.411Z,66.01
2022-10-18T22:38:58.852Z,65.94
2022-10-18T22:41:25.469Z,66.00
2022-10-18T22:43:53.112Z,65.92
2022-10-18T22:46:20.207Z,66.19
2022-10-18T22:48:47.024Z,66.00
2022-10-18T22:51:13.486Z,65.53
2022-10-18T22:53:40.856Z,65.38
2022-10-18T22:56:09.877Z,65.54
2022-10-18T22:58:36.547Z,65.49
2022-10-18T23:01:09.383Z,65.38
2022-10-18T23:03:36.706Z,65.82
2022-10-18T23:06:04.536Z,65.90
2022-10-18T23:08:31.361Z,66.69
2022-10-18T23:10:59.431Z,66.95
2022-10-18T23:13:27.378Z,66.26
2022-10-18T23:16:04.204Z,67.26
2022-10-18T23:18:31.657Z,67.36
2022-10-18T23:21:06.583Z,67.86
2022-10-18T23:23:35.440Z,67.65
2022-10-18T23:26:04.029Z,67.70
2022-10-18T23:28:33.429Z,67.34
2022-10-18T23:31:04.271Z,66.56
2022-10-18T23:33:30.821Z,66.45
2022-10-18T23:35:58.854Z,66.37
2022-10-18T23:38:25.199Z,66.49
2022-10-18T23:40:51.529Z,67.03
2022-10-18T23:43:18.008Z,66.86
2022-10-18T23:45:44.323Z,66.98
2022-10-18T23:48:10.641Z,66.64
2022-10-18T23:50:36.965Z,66.73
2022-10-18T23:53:03.528Z,66.73
2022-10-18T23:55:30.338Z,66.85
2022-10-18T23:57:56.785Z,66.19
